Time;durP1;ratioP1;P1;durP2;ratioP2;P2;SDS_P1;SDS_P2;PMS_P1;PMS_P2;Temp;Humidity;BMP_temperature;BMP_pressure;BME280_temperature;BME280_humidity;BME280_pressure;Samples;Min_cycle;Max_cycle;Signal;HPM_P1;HPM_P2
2021/10/06 00:02:25;;;;;;;7.38;3.38;;;11.50;92.90;;;;;;5073006;28;20045;-74
2021/10/06 00:04:50;;;;;;;9.57;4.13;;;11.60;93.00;;;;;;5055069;28;20052;-75
2021/10/06 00:07:16;;;;;;;8.57;4.18;;;11.60;93.10;;;;;;5072415;28;20127;-75
2021/10/06 00:09:41;;;;;;;7.05;3.58;;;11.60;93.10;;;;;;5055339;28;20464;-75
2021/10/06 00:12:07;;;;;;;10.50;5.10;;;11.60;93.10;;;;;;5072915;28;20126;-74
2021/10/06 00:14:33;;;;;;;8.88;5.13;;;11.60;93.20;;;;;;5063046;28;20021;-76
2021/10/06 00:16:58;;;;;;;7.90;3.92;;;11.60;93.30;;;;;;5068447;28;20021;-76
2021/10/06 00:19:24;;;;;;;8.68;4.13;;;11.60;93.20;;;;;;5073587;28;20021;-75
2021/10/06 00:21:50;;;;;;;10.00;5.32;;;11.60;93.20;;;;;;5056691;28;20074;-75
2021/10/06 00:24:15;;;;;;;9.88;5.18;;;11.60;93.30;;;;;;5059772;28;20035;-75
2021/10/06 00:26:41;;;;;;;8.93;4.47;;;11.60;93.40;;;;;;5075069;28;20029;-75
2021/10/06 00:29:08;;;;;;;7.60;3.67;;;11.60;93.20;;;;;;5054609;28;20020;-75
2021/10/06 00:31:33;;;;;;;8.30;3.60;;;11.60;93.10;;;;;;5054643;28;20025;-75
2021/10/06 00:33:59;;;;;;;7.28;3.33;;;11.60;93.20;;;;;;5072027;28;20028;-76
2021/10/06 00:36:25;;;;;;;6.82;3.42;;;11.60;93.20;;;;;;5072855;28;20025;-75
2021/10/06 00:38:51;;;;;;;11.52;4.20;;;11.60;93.20;;;;;;5072978;28;20104;-75
2021/10/06 00:41:17;;;;;;;12.18;4.10;;;11.60;93.30;;;;;;5073502;28;20077;-74
2021/10/06 00:43:42;;;;;;;7.45;3.88;;;11.50;93.40;;;;;;5076559;28;20025;-74
2021/10/06 00:46:08;;;;;;;9.60;3.78;;;11.60;93.30;;;;;;5084553;28;20044;-74
2021/10/06 00:48:34;;;;;;;7.03;2.70;;;11.60;93.30;;;;;;5066016;28;20121;-74
2021/10/06 00:50:59;;;;;;;9.70;3.25;;;11.50;93.30;;;;;;5075683;28;20472;-75
2021/10/06 00:53:28;;;;;;;10.65;3.58;;;11.60;93.30;;;;;;5072452;28;20075;-74
2021/10/06 00:55:55;;;;;;;8.00;3.17;;;11.60;93.20;;;;;;5072196;28;20070;-74
2021/10/06 00:58:21;;;;;;;9.88;3.15;;;11.60;93.20;;;;;;5072323;28;20029;-75
2021/10/06 01:00:47;;;;;;;9.82;2.65;;;11.60;93.20;;;;;;5072556;28;20029;-75
2021/10/06 01:03:13;;;;;;;7.63;2.33;;;11.60;93.20;;;;;;5071899;28;20444;-75
2021/10/06 01:05:39;;;;;;;5.18;2.33;;;11.70;93.10;;;;;;5072185;28;20078;-75
2021/10/06 01:08:07;;;;;;;10.50;2.40;;;11.60;93.00;;;;;;5072219;28;20024;-75
2021/10/06 01:10:34;;;;;;;6.20;2.03;;;11.70;93.00;;;;;;5072372;28;20054;-75
2021/10/06 01:12:59;;;;;;;9.88;1.90;;;11.70;92.90;;;;;;5053615;28;20025;-75
2021/10/06 01:15:26;;;;;;;9.85;2.30;;;11.70;92.90;;;;;;5071833;28;20158;-75
2021/10/06 01:17:52;;;;;;;7.43;2.25;;;11.70;92.80;;;;;;5071879;28;20020;-75
2021/10/06 01:20:17;;;;;;;9.43;2.80;;;11.70;92.70;;;;;;5053857;28;20028;-75
2021/10/06 01:22:43;;;;;;;8.85;1.90;;;11.70;92.90;;;;;;5072131;28;20385;-75
2021/10/06 01:25:11;;;;;;;5.40;1.90;;;11.80;92.50;;;;;;5072256;28;20033;-75
2021/10/06 01:27:38;;;;;;;10.40;1.80;;;11.80;92.50;;;;;;5072014;28;20431;-74
2021/10/06 01:30:06;;;;;;;9.85;2.42;;;11.80;92.50;;;;;;5071652;28;20021;-74
2021/10/06 01:32:36;;;;;;;9.68;1.80;;;11.80;92.40;;;;;;5071957;28;20060;-75
2021/10/06 01:35:05;;;;;;;11.88;2.42;;;11.80;92.30;;;;;;5071624;28;20060;-76
2021/10/06 01:37:31;;;;;;;11.68;2.80;;;11.90;92.20;;;;;;5071997;28;20380;-75
2021/10/06 01:39:57;;;;;;;7.75;2.00;;;11.80;92.20;;;;;;5057199;28;20021;-75
2021/10/06 01:42:23;;;;;;;8.63;2.30;;;11.90;92.30;;;;;;5075555;28;20031;-75
2021/10/06 01:44:49;;;;;;;6.78;2.15;;;11.80;92.30;;;;;;5075456;28;20117;-75
2021/10/06 01:47:20;;;;;;;8.00;1.98;;;11.80;92.40;;;;;;5056827;28;20032;-74
2021/10/06 01:49:47;;;;;;;7.13;1.80;;;11.80;92.50;;;;;;5075614;28;20078;-75
2021/10/06 01:52:16;;;;;;;13.15;2.35;;;11.80;92.40;;;;;;5075057;28;20388;-75
2021/10/06 01:54:41;;;;;;;11.82;2.15;;;11.80;92.30;;;;;;5075572;28;20115;-75
2021/10/06 01:57:07;;;;;;;6.55;1.90;;;11.80;92.30;;;;;;5074698;28;20108;-75
2021/10/06 01:59:33;;;;;;;9.73;1.80;;;11.80;92.30;;;;;;5075182;28;20021;-75
2021/10/06 02:01:58;;;;;;;12.32;1.83;;;11.80;92.40;;;;;;5074952;28;20094;-74
2021/10/06 02:04:24;;;;;;;9.35;2.10;;;11.80;92.50;;;;;;5074890;28;20472;-74
2021/10/06 02:06:49;;;;;;;11.07;2.47;;;11.80;92.60;;;;;;5075133;28;20369;-75
2021/10/06 02:09:15;;;;;;;8.80;1.90;;;11.70;92.70;;;;;;5074823;28;20489;-74
2021/10/06 02:11:40;;;;;;;6.32;1.90;;;11.70;92.70;;;;;;5075080;28;20024;-75
2021/10/06 02:14:06;;;;;;;8.85;2.28;;;11.70;92.70;;;;;;5075124;28;20102;-75
2021/10/06 02:16:32;;;;;;;6.57;2.10;;;11.70;92.90;;;;;;5059342;28;20020;-75
2021/10/06 02:18:57;;;;;;;14.45;3.28;;;11.70;92.90;;;;;;5079389;28;20036;-74
2021/10/06 02:21:23;;;;;;;8.63;2.50;;;11.70;92.80;;;;;;5088190;28;20028;-74
2021/10/06 02:23:48;;;;;;;8.98;2.30;;;11.70;92.90;;;;;;5057262;28;20032;-74
2021/10/06 02:26:14;;;;;;;13.05;2.35;;;11.60;92.80;;;;;;5075233;28;20104;-74
2021/10/06 02:28:41;;;;;;;12.90;2.60;;;11.70;92.90;;;;;;5075723;28;20023;-75
2021/10/06 02:31:06;;;;;;;14.10;2.65;;;11.60;92.80;;;;;;5076750;28;20377;-73
2021/10/06 02:33:32;;;;;;;7.45;2.33;;;11.60;92.90;;;;;;5063507;28;20025;-73
2021/10/06 02:35:57;;;;;;;8.55;2.40;;;11.60;93.00;;;;;;5070308;28;20025;-73
2021/10/06 02:38:23;;;;;;;8.57;1.85;;;11.60;92.90;;;;;;5076638;28;20477;-75
2021/10/06 02:40:49;;;;;;;12.38;2.40;;;11.60;92.80;;;;;;5076241;28;20358;-74
2021/10/06 02:43:14;;;;;;;8.77;2.30;;;11.60;92.80;;;;;;5056609;28;20025;-74
2021/10/06 02:45:40;;;;;;;9.13;2.90;;;11.60;92.80;;;;;;5056629;28;20029;-74
2021/10/06 02:48:06;;;;;;;10.63;2.63;;;11.60;92.80;;;;;;5074028;28;20067;-74
2021/10/06 02:50:32;;;;;;;6.22;2.40;;;11.50;92.90;;;;;;5073766;28;20035;-74
2021/10/06 02:52:57;;;;;;;11.48;2.95;;;11.50;93.10;;;;;;5056142;28;20028;-74
2021/10/06 02:55:23;;;;;;;12.45;2.35;;;11.40;93.20;;;;;;5074193;28;20108;-74
2021/10/06 02:57:49;;;;;;;8.43;1.75;;;11.50;93.30;;;;;;5074649;28;20427;-74
2021/10/06 03:00:15;;;;;;;10.50;2.83;;;11.40;93.20;;;;;;5056637;28;20017;-76
2021/10/06 03:02:41;;;;;;;5.78;2.20;;;11.50;93.20;;;;;;5075518;28;20024;-74
2021/10/06 03:05:08;;;;;;;10.52;2.40;;;11.40;93.30;;;;;;5080071;28;20036;-74
2021/10/06 03:07:33;;;;;;;7.97;2.50;;;11.40;93.10;;;;;;5076620;28;20095;-75
2021/10/06 03:09:59;;;;;;;10.30;3.13;;;11.50;93.20;;;;;;5074312;28;20485;-73
2021/10/06 03:12:25;;;;;;;8.02;3.10;;;11.50;93.20;;;;;;5074086;28;20419;-75
2021/10/06 03:14:51;;;;;;;8.25;3.10;;;11.50;93.00;;;;;;5074089;28;20402;-76
2021/10/06 03:17:16;;;;;;;9.48;2.67;;;11.50;93.10;;;;;;5074132;28;20104;-75
2021/10/06 03:19:42;;;;;;;9.77;3.17;;;11.50;93.10;;;;;;5074068;28;20020;-75
2021/10/06 03:22:07;;;;;;;7.97;3.22;;;11.50;93.10;;;;;;5074240;28;20028;-75
2021/10/06 03:24:33;;;;;;;9.50;3.13;;;11.50;93.10;;;;;;5073743;28;20036;-75
2021/10/06 03:26:59;;;;;;;13.23;3.90;;;11.50;93.30;;;;;;5056043;28;20111;-75
2021/10/06 03:29:24;;;;;;;10.23;3.72;;;11.50;93.20;;;;;;5055684;28;20472;-74
2021/10/06 03:31:50;;;;;;;13.57;3.78;;;11.40;93.40;;;;;;5056361;28;20036;-75
2021/10/06 03:34:15;;;;;;;11.77;4.40;;;11.40;93.60;;;;;;5074060;28;20024;-74
2021/10/06 03:36:41;;;;;;;9.35;3.63;;;11.40;93.80;;;;;;5074268;28;20032;-76
2021/10/06 03:39:06;;;;;;;12.32;4.32;;;11.40;93.80;;;;;;5079929;28;20017;-75
2021/10/06 03:41:32;;;;;;;11.50;3.15;;;11.40;93.80;;;;;;5091571;28;20048;-74
2021/10/06 03:43:58;;;;;;;9.88;3.45;;;11.40;93.60;;;;;;5088431;28;20036;-74
2021/10/06 03:46:23;;;;;;;11.52;4.47;;;11.30;93.60;;;;;;5069131;28;20487;-74
2021/10/06 03:48:51;;;;;;;8.50;3.50;;;11.40;93.70;;;;;;5074565;28;20025;-74
2021/10/06 03:51:17;;;;;;;8.93;2.95;;;11.30;93.80;;;;;;5055394;28;20017;-73
2021/10/06 03:53:43;;;;;;;8.07;3.15;;;11.30;93.80;;;;;;5073800;28;20048;-74
2021/10/06 03:56:09;;;;;;;7.50;3.03;;;11.30;93.70;;;;;;5072743;28;20023;-74
2021/10/06 03:58:35;;;;;;;9.55;3.60;;;11.30;93.80;;;;;;5073176;28;20111;-74
2021/10/06 04:01:01;;;;;;;12.05;4.45;;;11.30;93.80;;;;;;5072464;28;20020;-74
2021/10/06 04:03:27;;;;;;;8.57;3.33;;;11.30;93.90;;;;;;5054686;28;20047;-73
2021/10/06 04:05:52;;;;;;;8.65;3.63;;;11.30;93.90;;;;;;5055035;28;20450;-73
2021/10/06 04:08:19;;;;;;;7.10;2.40;;;11.20;93.90;;;;;;5072910;28;20106;-73
2021/10/06 04:10:45;;;;;;;7.55;3.17;;;11.20;94.00;;;;;;5073320;28;20056;-74
2021/10/06 04:13:10;;;;;;;8.40;3.17;;;11.20;94.10;;;;;;5055309;28;20617;-74
2021/10/06 04:15:36;;;;;;;7.93;3.30;;;11.20;94.20;;;;;;5072878;28;20071;-73
2021/10/06 04:18:05;;;;;;;6.90;2.75;;;11.20;94.20;;;;;;5073068;28;20020;-73
2021/10/06 04:20:31;;;;;;;7.05;2.78;;;11.20;94.20;;;;;;5057330;28;20048;-74
2021/10/06 04:22:57;;;;;;;9.40;3.08;;;11.20;94.30;;;;;;5078980;28;20029;-73
2021/10/06 04:25:23;;;;;;;7.43;2.70;;;11.20;94.20;;;;;;5079671;28;20552;-73
2021/10/06 04:27:48;;;;;;;4.45;2.17;;;11.20;94.20;;;;;;5074278;28;20027;-75
2021/10/06 04:30:14;;;;;;;5.10;1.90;;;11.20;94.00;;;;;;5072999;28;20107;-75
2021/10/06 04:32:40;;;;;;;7.85;1.95;;;11.10;93.80;;;;;;5055352;28;20020;-75
2021/10/06 04:35:07;;;;;;;5.40;2.17;;;11.10;93.70;;;;;;5055402;28;20025;-73
2021/10/06 04:37:33;;;;;;;4.60;1.80;;;11.00;93.80;;;;;;5054618;28;20089;-74
2021/10/06 04:39:59;;;;;;;6.82;2.80;;;11.00;93.80;;;;;;5072027;28;20032;-74
2021/10/06 04:42:24;;;;;;;6.13;2.10;;;10.90;93.90;;;;;;5038014;28;20037;-74
2021/10/06 04:44:50;;;;;;;5.05;2.15;;;10.90;94.00;;;;;;5072448;28;20016;-74
2021/10/06 04:47:16;;;;;;;7.55;3.28;;;10.90;94.10;;;;;;5072394;28;20024;-74
2021/10/06 04:49:41;;;;;;;7.15;3.60;;;10.90;94.30;;;;;;5072475;28;20097;-73
2021/10/06 04:52:07;;;;;;;9.25;3.67;;;10.90;94.50;;;;;;5054120;28;20024;-73
2021/10/06 04:54:32;;;;;;;9.40;3.63;;;10.90;94.50;;;;;;5072670;28;20032;-74
2021/10/06 04:56:58;;;;;;;13.00;4.57;;;10.90;94.60;;;;;;5072537;28;20109;-74
2021/10/06 04:59:24;;;;;;;12.20;3.78;;;10.90;94.80;;;;;;5054182;28;20027;-73
2021/10/06 05:01:49;;;;;;;7.40;2.95;;;10.90;94.80;;;;;;5054313;28;20505;-74
2021/10/06 05:04:15;;;;;;;7.25;3.88;;;10.90;94.70;;;;;;5073249;28;20111;-74
2021/10/06 05:06:40;;;;;;;6.53;3.00;;;10.90;94.80;;;;;;5072904;28;20534;-74
2021/10/06 05:09:06;;;;;;;6.70;3.00;;;11.00;94.50;;;;;;5072499;28;20059;-74
2021/10/06 05:11:32;;;;;;;6.22;3.40;;;11.00;94.40;;;;;;5071822;28;20043;-74
2021/10/06 05:13:58;;;;;;;7.40;3.80;;;11.00;94.20;;;;;;5057413;28;20540;-75
2021/10/06 05:16:25;;;;;;;10.63;3.58;;;11.00;94.20;;;;;;5058738;28;20104;-74
2021/10/06 05:18:50;;;;;;;9.73;4.95;;;11.00;94.10;;;;;;5075848;28;20380;-74
2021/10/06 05:21:16;;;;;;;10.80;4.57;;;11.10;94.40;;;;;;5076086;28;20094;-74
2021/10/06 05:23:42;;;;;;;10.75;4.05;;;11.10;94.50;;;;;;5057940;28;20020;-74
2021/10/06 05:26:07;;;;;;;9.32;4.32;;;11.10;94.60;;;;;;5076158;28;20033;-74
2021/10/06 05:28:33;;;;;;;8.32;3.28;;;11.00;94.50;;;;;;5085001;28;20016;-72
2021/10/06 05:30:58;;;;;;;12.20;4.28;;;11.00;94.60;;;;;;5073489;28;20052;-74
2021/10/06 05:33:24;;;;;;;7.00;2.78;;;11.00;94.40;;;;;;5074396;28;20041;-73
2021/10/06 05:35:50;;;;;;;9.23;4.07;;;11.00;94.10;;;;;;5087880;28;20031;-73
2021/10/06 05:38:18;;;;;;;8.80;3.83;;;11.00;94.20;;;;;;5076704;28;20029;-74
2021/10/06 05:40:44;;;;;;;9.68;3.47;;;11.00;94.30;;;;;;5076408;28;20025;-74
2021/10/06 05:43:11;;;;;;;10.13;2.80;;;11.00;94.10;;;;;;5077933;28;20020;-74
2021/10/06 05:45:37;;;;;;;6.68;2.95;;;11.00;94.20;;;;;;5079949;28;20032;-74
2021/10/06 05:48:03;;;;;;;7.43;2.92;;;11.00;94.30;;;;;;5077254;28;20025;-74
2021/10/06 05:50:28;;;;;;;5.97;2.47;;;11.00;94.30;;;;;;5057651;28;20388;-74
2021/10/06 05:52:58;;;;;;;6.13;2.95;;;11.00;94.10;;;;;;5075486;28;20103;-74
2021/10/06 05:55:24;;;;;;;11.38;3.60;;;11.00;93.90;;;;;;5057180;28;20032;-75
2021/10/06 05:57:50;;;;;;;9.57;3.42;;;11.10;94.00;;;;;;5074963;28;20025;-75
2021/10/06 06:00:16;;;;;;;9.80;3.63;;;11.00;93.90;;;;;;5075084;28;20020;-74
2021/10/06 06:02:46;;;;;;;9.40;3.80;;;11.00;94.10;;;;;;5074768;28;20481;-73
2021/10/06 06:05:13;;;;;;;12.05;3.33;;;11.00;94.20;;;;;;5075681;28;20032;-73
2021/10/06 06:07:39;;;;;;;8.35;3.63;;;11.00;94.20;;;;;;5076284;28;20096;-75
2021/10/06 06:10:09;;;;;;;10.23;4.32;;;11.00;94.20;;;;;;5061979;28;20060;-73
2021/10/06 06:12:34;;;;;;;9.90;4.25;;;11.00;94.10;;;;;;5061995;28;20016;-75
2021/10/06 06:15:00;;;;;;;7.35;3.28;;;11.00;94.40;;;;;;5075316;28;20024;-74
2021/10/06 06:17:26;;;;;;;12.65;3.90;;;11.00;93.90;;;;;;5056563;28;20385;-75
2021/10/06 06:19:52;;;;;;;8.95;4.03;;;11.00;94.20;;;;;;5074508;28;20047;-76
2021/10/06 06:22:17;;;;;;;10.20;3.75;;;11.00;94.20;;;;;;5074517;28;20024;-74
2021/10/06 06:24:43;;;;;;;10.07;3.78;;;11.00;94.00;;;;;;5055816;28;20097;-73
2021/10/06 06:27:09;;;;;;;10.13;3.95;;;11.00;94.10;;;;;;5076596;28;20033;-73
2021/10/06 06:29:37;;;;;;;8.00;3.00;;;11.00;94.20;;;;;;5078027;28;20024;-74
2021/10/06 06:32:03;;;;;;;10.10;3.55;;;10.90;94.20;;;;;;5081354;28;20078;-75
2021/10/06 06:34:29;;;;;;;10.55;3.67;;;10.90;94.20;;;;;;5057288;28;20392;-75
2021/10/06 06:36:55;;;;;;;10.30;4.30;;;10.90;94.20;;;;;;5074922;28;20100;-75
2021/10/06 06:39:21;;;;;;;11.50;4.28;;;11.00;94.40;;;;;;5056029;28;20199;-74
2021/10/06 06:41:47;;;;;;;7.47;3.88;;;11.00;94.30;;;;;;5056694;28;20054;-74
2021/10/06 06:44:13;;;;;;;10.55;4.20;;;11.00;94.10;;;;;;5055804;28;20032;-74
2021/10/06 06:46:39;;;;;;;9.18;4.03;;;11.00;94.20;;;;;;5055992;28;20057;-75
2021/10/06 06:49:06;;;;;;;9.27;4.38;;;11.00;94.40;;;;;;5073053;28;20465;-75
2021/10/06 06:51:32;;;;;;;10.32;5.18;;;10.90;94.50;;;;;;5073307;28;20028;-74
2021/10/06 06:53:58;;;;;;;13.48;8.63;;;11.00;94.70;;;;;;5055394;28;20032;-74
2021/10/06 06:56:28;;;;;;;9.25;4.15;;;11.00;94.50;;;;;;5080066;28;20013;-76
2021/10/06 06:58:54;;;;;;;;;;;10.90;94.50;;;;;;5055427;28;20077;-74
2021/10/06 07:01:19;;;;;;;8.73;4.15;;;10.90;94.70;;;;;;5054029;28;20326;-74
2021/10/06 07:03:45;;;;;;;10.15;3.70;;;10.90;94.70;;;;;;5055119;28;20021;-75
2021/10/06 07:06:10;;;;;;;11.88;4.47;;;10.90;94.60;;;;;;5073004;28;20460;-74
2021/10/06 07:08:42;;;;;;;11.32;4.78;;;10.90;94.70;;;;;;5079413;28;20051;-79
2021/10/06 07:11:13;;;;;;;8.60;4.00;;;10.90;94.70;;;;;;5053353;28;20383;-74
2021/10/06 07:13:38;;;;;;;11.98;4.40;;;10.90;94.90;;;;;;5055636;28;20032;-75
2021/10/06 07:16:04;;;;;;;7.72;3.80;;;10.90;95.00;;;;;;5076416;28;20626;-74
2021/10/06 07:18:30;;;;;;;7.03;2.95;;;11.00;94.80;;;;;;5089854;28;20031;-74
2021/10/06 07:20:55;;;;;;;8.35;4.43;;;11.00;94.70;;;;;;5065913;28;20021;-74
2021/10/06 07:23:24;;;;;;;7.63;3.70;;;11.00;94.70;;;;;;5095184;28;20076;-72
2021/10/06 07:25:50;;;;;;;8.48;3.10;;;11.00;94.50;;;;;;5060612;28;20085;-74
2021/10/06 07:28:15;;;;;;;10.07;4.20;;;11.00;94.40;;;;;;5074110;28;20025;-74
2021/10/06 07:30:41;;;;;;;8.88;4.20;;;11.00;94.50;;;;;;5073752;28;20423;-74
2021/10/06 07:33:07;;;;;;;10.57;4.55;;;11.10;95.00;;;;;;5073238;28;20492;-75
2021/10/06 07:35:32;;;;;;;7.05;4.13;;;11.10;95.10;;;;;;5072734;28;20032;-74
2021/10/06 07:37:58;;;;;;;8.98;4.32;;;11.10;95.00;;;;;;5055009;28;20039;-75
2021/10/06 07:40:24;;;;;;;8.93;4.45;;;11.10;95.10;;;;;;5088427;28;20024;-74
2021/10/06 07:42:49;;;;;;;6.55;4.10;;;11.10;94.80;;;;;;5088495;28;20496;-74
2021/10/06 07:45:15;;;;;;;10.38;5.55;;;11.10;94.90;;;;;;5054636;28;20024;-74
2021/10/06 07:47:41;;;;;;;12.02;4.78;;;11.10;95.00;;;;;;5072383;28;20021;-75
2021/10/06 07:50:07;;;;;;;9.40;3.65;;;11.10;95.10;;;;;;5088087;28;20494;-75
2021/10/06 07:52:32;;;;;;;13.23;4.75;;;11.10;95.00;;;;;;5054934;28;20033;-74
2021/10/06 07:54:58;;;;;;;12.38;4.57;;;11.20;95.10;;;;;;5072897;28;20056;-75
2021/10/06 07:57:24;;;;;;;7.82;4.28;;;11.20;95.10;;;;;;5092542;28;20086;-74
2021/10/06 07:59:49;;;;;;;12.30;4.82;;;11.30;95.00;;;;;;5076639;28;20025;-74
2021/10/06 08:02:15;;;;;;;10.43;4.32;;;11.20;95.20;;;;;;5076475;28;20036;-75
2021/10/06 08:04:54;;;;;;;7.50;3.80;;;11.20;95.10;;;;;;5088670;28;20041;-75
2021/10/06 08:07:20;;;;;;;5.88;4.07;;;11.20;95.20;;;;;;5085460;28;20089;-75
2021/10/06 08:09:45;;;;;;;10.52;4.70;;;11.20;95.10;;;;;;5072513;28;20150;-75
2021/10/06 08:12:11;;;;;;;7.68;4.40;;;11.20;95.00;;;;;;5088428;28;20052;-76
2021/10/06 08:14:37;;;;;;;9.25;4.57;;;11.20;95.20;;;;;;5072483;28;20031;-75
2021/10/06 08:17:03;;;;;;;9.40;4.50;;;11.20;95.30;;;;;;5072626;28;20025;-74
2021/10/06 08:19:29;;;;;;;10.68;4.68;;;11.20;95.10;;;;;;5088012;28;20028;-75
2021/10/06 08:21:54;;;;;;;8.50;4.47;;;11.20;95.10;;;;;;5054555;28;20056;-74
2021/10/06 08:24:20;;;;;;;10.38;4.55;;;11.20;95.10;;;;;;5073787;28;20120;-74
2021/10/06 08:26:46;;;;;;;10.15;5.65;;;11.20;95.10;;;;;;5090621;28;20060;-75
2021/10/06 08:29:13;;;;;;;4.85;2.92;;;11.30;95.30;;;;;;5090042;28;20033;-75
2021/10/06 08:31:39;;;;;;;9.32;4.82;;;11.30;95.10;;;;;;5073136;28;20033;-75
2021/10/06 08:34:05;;;;;;;6.60;3.35;;;11.30;95.30;;;;;;5054910;28;20078;-76
2021/10/06 08:36:33;;;;;;;6.57;3.92;;;11.30;95.00;;;;;;5074352;28;20016;-75
2021/10/06 08:39:00;;;;;;;7.15;3.35;;;11.40;94.90;;;;;;5055309;28;20025;-74
2021/10/06 08:41:26;;;;;;;6.70;3.42;;;11.40;94.60;;;;;;5054643;28;20029;-74
2021/10/06 08:43:52;;;;;;;8.60;4.35;;;11.40;94.70;;;;;;5073269;28;20059;-75
2021/10/06 08:46:21;;;;;;;6.97;4.10;;;11.50;94.70;;;;;;5072588;28;20039;-76
2021/10/06 08:48:49;;;;;;;8.18;3.58;;;11.50;94.90;;;;;;5057791;28;20078;-74
2021/10/06 08:51:15;;;;;;;6.95;3.75;;;11.60;94.70;;;;;;5076768;28;20016;-75
2021/10/06 08:53:41;;;;;;;6.38;3.35;;;11.70;94.50;;;;;;5076276;28;20055;-75
2021/10/06 08:56:06;;;;;;;5.90;3.65;;;11.70;94.30;;;;;;5058580;28;20048;-75
2021/10/06 08:58:32;;;;;;;6.38;2.80;;;11.70;94.20;;;;;;5076251;28;20027;-76
2021/10/06 09:00:59;;;;;;;5.43;2.20;;;11.70;93.90;;;;;;5076675;28;20064;-75
2021/10/06 09:03:27;;;;;;;6.70;3.67;;;11.70;94.00;;;;;;5076434;28;20491;-75
2021/10/06 09:06:04;;;;;;;8.05;3.70;;;11.70;94.30;;;;;;5060807;28;20372;-74
2021/10/06 09:08:32;;;;;;;5.47;3.65;;;11.70;94.30;;;;;;5097799;28;20037;-75
2021/10/06 09:10:59;;;;;;;7.65;3.88;;;11.70;94.60;;;;;;5090463;28;20025;-76
2021/10/06 09:13:37;;;;;;;5.70;2.60;;;11.70;94.90;;;;;;5095376;28;20054;-75
2021/10/06 09:16:03;;;;;;;5.60;3.42;;;11.80;94.90;;;;;;5063042;28;20020;-76
2021/10/06 09:18:31;;;;;;;4.55;3.05;;;11.80;94.90;;;;;;5058047;28;20131;-75
2021/10/06 09:21:00;;;;;;;4.78;2.80;;;11.80;94.60;;;;;;5057886;28;20024;-75
2021/10/06 09:23:26;;;;;;;8.90;4.45;;;11.90;94.40;;;;;;5057433;28;20131;-74
2021/10/06 09:25:53;;;;;;;5.80;2.85;;;11.90;95.30;;;;;;5058181;28;20099;-76
2021/10/06 09:28:24;;;;;;;8.68;3.72;;;11.90;95.20;;;;;;5057910;28;20048;-75
2021/10/06 09:31:14;;;;;;;6.82;3.97;;;12.00;95.20;;;;;;5057271;28;20074;-76
2021/10/06 09:33:42;;;;;;;6.43;3.27;;;12.10;95.20;;;;;;5057523;28;20032;-75
2021/10/06 09:36:11;;;;;;;12.60;4.65;;;12.10;94.70;;;;;;5075831;28;20267;-75
2021/10/06 09:38:51;;;;;;;6.55;2.97;;;12.20;94.40;;;;;;5075362;28;20465;-75
2021/10/06 09:41:45;;;;;;;11.18;4.10;;;12.20;94.70;;;;;;5076153;28;20055;-76
2021/10/06 09:44:29;;;;;;;7.85;4.45;;;12.30;95.10;;;;;;5073184;28;20049;-76
2021/10/06 09:46:57;;;;;;;8.32;3.25;;;12.40;95.10;;;;;;5064169;28;20462;-74
2021/10/06 09:49:22;;;;;;;10.52;3.75;;;12.60;94.50;;;;;;5084703;28;20021;-75
2021/10/06 09:51:49;;;;;;;5.65;3.30;;;12.80;94.40;;;;;;5079917;28;20096;-77
2021/10/06 09:54:14;;;;;;;6.43;3.42;;;12.80;94.50;;;;;;5077091;28;20538;-76
2021/10/06 09:56:46;;;;;;;6.85;3.10;;;12.80;94.60;;;;;;5058112;28;20111;-77
2021/10/06 09:59:15;;;;;;;10.25;2.72;;;12.80;94.30;;;;;;5056434;28;20017;-76
2021/10/06 10:01:42;;;;;;;5.07;2.83;;;12.70;94.40;;;;;;5075183;28;20024;-76
2021/10/06 10:04:09;;;;;;;6.70;2.22;;;12.70;94.20;;;;;;5075479;28;20036;-76
2021/10/06 10:06:36;;;;;;;8.95;2.03;;;12.70;94.40;;;;;;5075161;28;20484;-76
2021/10/06 10:09:04;;;;;;;6.50;2.45;;;12.70;94.60;;;;;;5075401;28;20028;-76
2021/10/06 10:11:32;;;;;;;6.28;2.35;;;12.60;94.40;;;;;;5057857;28;20445;-76
2021/10/06 10:13:59;;;;;;;7.03;3.22;;;12.60;94.30;;;;;;5057923;28;20052;-74
2021/10/06 10:16:25;;;;;;;9.40;3.15;;;12.60;93.80;;;;;;5057919;28;20089;-78
2021/10/06 10:18:51;;;;;;;13.18;3.90;;;12.60;94.20;;;;;;5091161;28;20468;-75
2021/10/06 10:21:19;;;;;;;5.40;2.50;;;12.60;94.60;;;;;;5057400;28;20086;-75
2021/10/06 10:23:45;;;;;;;10.50;3.92;;;12.60;94.50;;;;;;5057447;28;20419;-76
2021/10/06 10:26:24;;;;;;;8.05;3.05;;;12.70;94.60;;;;;;5057969;28;20021;-76
2021/10/06 10:28:50;;;;;;;9.10;3.78;;;12.70;94.60;;;;;;5075441;28;20165;-76
2021/10/06 10:31:18;;;;;;;10.82;4.05;;;12.70;94.50;;;;;;5075250;28;20025;-76
2021/10/06 10:33:49;;;;;;;8.88;3.20;;;12.80;94.70;;;;;;5074595;28;20422;-75
2021/10/06 10:36:34;;;;;;;13.15;4.65;;;12.80;94.50;;;;;;5075279;28;20422;-75
2021/10/06 10:39:06;;;;;;;7.03;2.97;;;13.00;94.80;;;;;;5080782;28;20021;-75
2021/10/06 10:41:41;;;;;;;9.40;3.17;;;13.10;94.70;;;;;;5061523;28;20488;-75
2021/10/06 10:44:10;;;;;;;8.15;2.90;;;13.20;94.30;;;;;;5056976;28;20078;-75
2021/10/06 10:47:11;;;;;;;10.25;2.97;;;13.30;94.40;;;;;;5055904;28;20020;-74
2021/10/06 10:49:52;;;;;;;12.77;3.58;;;13.40;94.30;;;;;;4992069;28;20058;-75
2021/10/06 10:52:19;;;;;;;8.68;2.80;;;13.40;94.10;;;;;;5066075;28;20044;-75
2021/10/06 10:54:47;;;;;;;7.65;2.22;;;13.50;93.80;;;;;;5059097;28;20024;-75
2021/10/06 10:57:22;;;;;;;8.75;2.10;;;13.60;94.20;;;;;;5090554;28;20032;-75
2021/10/06 10:59:51;;;;;;;6.18;1.75;;;14.00;93.90;;;;;;5068274;28;20025;-75
2021/10/06 11:02:33;;;;;;;7.57;1.67;;;14.40;92.80;;;;;;5078251;28;20033;-74
2021/10/06 11:05:01;;;;;;;10.55;2.25;;;14.60;91.90;;;;;;5064846;28;20089;-74
2021/10/06 11:07:27;;;;;;;7.22;1.92;;;14.70;91.50;;;;;;5058383;28;20063;-76
2021/10/06 11:09:56;;;;;;;4.72;2.13;;;14.70;91.40;;;;;;5056722;28;20020;-76
2021/10/06 11:12:21;;;;;;;9.27;2.08;;;14.70;91.60;;;;;;5056240;28;20028;-75
2021/10/06 11:15:04;;;;;;;6.43;1.35;;;14.70;91.30;;;;;;5073652;28;20085;-75
2021/10/06 11:17:29;;;;;;;10.45;2.42;;;14.70;91.30;;;;;;5056128;28;20060;-74
2021/10/06 11:19:57;;;;;;;6.70;1.83;;;14.70;91.30;;;;;;5089737;28;20430;-74
2021/10/06 11:22:23;;;;;;;5.18;1.85;;;14.70;91.60;;;;;;5055997;28;20021;-76
2021/10/06 11:24:50;;;;;;;5.72;1.45;;;14.70;91.90;;;;;;5073456;28;20032;-75
2021/10/06 11:27:16;;;;;;;8.00;1.60;;;14.60;91.00;;;;;;5056471;28;20488;-76
2021/10/06 11:29:46;;;;;;;7.78;1.85;;;14.50;91.70;;;;;;5073760;28;20021;-76
2021/10/06 11:32:12;;;;;;;7.13;1.58;;;14.50;91.40;;;;;;5074640;28;20477;-76
2021/10/06 11:34:50;;;;;;;6.78;1.83;;;14.80;91.90;;;;;;5059540;28;20044;-74
2021/10/06 11:37:17;;;;;;;5.20;1.20;;;15.50;90.40;;;;;;5063818;28;20020;-75
2021/10/06 11:39:44;;;;;;;5.47;1.17;;;16.00;90.10;;;;;;5061447;28;20021;-76
2021/10/06 11:42:10;;;;;;;7.13;1.10;;;16.40;88.90;;;;;;5056437;28;20028;-75
2021/10/06 11:44:38;;;;;;;6.55;1.30;;;16.90;86.30;;;;;;5055260;28;20032;-74
2021/10/06 11:47:06;;;;;;;5.07;1.80;;;16.90;83.90;;;;;;5073224;28;20086;-76
2021/10/06 11:49:35;;;;;;;6.95;1.23;;;16.80;84.30;;;;;;5073808;28;20473;-77
2021/10/06 11:52:02;;;;;;;5.82;1.40;;;16.70;84.30;;;;;;5073485;28;20147;-75
2021/10/06 11:54:27;;;;;;;5.47;1.83;;;16.40;85.10;;;;;;5073515;28;20086;-75
2021/10/06 11:56:56;;;;;;;10.90;1.50;;;16.20;85.80;;;;;;5073275;28;20419;-75
2021/10/06 11:59:27;;;;;;;5.15;1.45;;;15.90;87.20;;;;;;5073425;28;20028;-76
2021/10/06 12:02:05;;;;;;;7.78;1.92;;;15.70;88.30;;;;;;5054805;28;20054;-76
2021/10/06 12:04:41;;;;;;;7.65;2.50;;;15.60;89.30;;;;;;5072996;28;20105;-75
2021/10/06 12:07:11;;;;;;;10.55;2.00;;;15.40;89.00;;;;;;5072432;28;20350;-75
2021/10/06 12:09:41;;;;;;;8.65;2.47;;;15.30;90.00;;;;;;5072368;28;20217;-76
2021/10/06 12:12:12;;;;;;;7.85;1.88;;;15.30;90.50;;;;;;5072508;28;20069;-76
2021/10/06 12:14:49;;;;;;;9.25;2.65;;;15.30;90.50;;;;;;5054506;28;20025;-76
2021/10/06 12:17:24;;;;;;;4.15;1.73;;;15.40;90.60;;;;;;5072908;28;20031;-75
2021/10/06 12:20:06;;;;;;;9.70;2.05;;;15.40;90.50;;;;;;5073192;28;20052;-76
2021/10/06 12:22:46;;;;;;;7.40;2.33;;;15.50;90.50;;;;;;5072331;28;20073;-76
2021/10/06 12:25:14;;;;;;;12.40;2.53;;;15.50;90.30;;;;;;5055196;28;20508;-75
2021/10/06 12:27:48;;;;;;;7.75;1.98;;;15.50;90.30;;;;;;5072381;28;20018;-74
2021/10/06 12:30:16;;;;;;;8.30;2.60;;;15.50;90.30;;;;;;5072464;28;20465;-76
2021/10/06 12:32:44;;;;;;;9.13;2.92;;;15.60;90.40;;;;;;5054477;28;20528;-77
2021/10/06 12:35:13;;;;;;;6.05;1.60;;;15.80;90.70;;;;;;5055377;28;20032;-76
2021/10/06 12:37:56;;;;;;;6.05;2.00;;;16.10;90.00;;;;;;5073536;28;20129;-75
2021/10/06 12:40:35;;;;;;;6.65;2.15;;;16.50;88.80;;;;;;5074662;28;20031;-77
2021/10/06 12:43:14;;;;;;;8.60;1.70;;;16.80;87.30;;;;;;5059874;28;20033;-76
2021/10/06 12:46:03;;;;;;;10.88;2.50;;;17.20;85.60;;;;;;5089514;28;20001;-76
2021/10/06 12:48:37;;;;;;;11.73;1.63;;;17.20;83.40;;;;;;5073668;28;20035;-76